Time;durP1;ratioP1;P1;durP2;ratioP2;P2;SDS_P1;SDS_P2;PMS_P1;PMS_P2;Temp;Humidity;BMP_temperature;BMP_pressure;BME280_temperature;BME280_humidity;BME280_pressure;Samples;Min_cycle;Max_cycle;Signal;HPM_P1;HPM_P2
2021/04/02 00:01:51;;;;;;;405.33;221.73;;;;;;;;;;4986378;28;20022;-73
2021/04/02 00:04:17;;;;;;;410.85;223.05;;;;;;;;;;5008503;28;20033;-73
2021/04/02 00:06:43;;;;;;;398.67;233.65;;;;;;;;;;5006434;28;20482;-73
2021/04/02 00:09:13;;;;;;;411.90;223.23;;;;;;;;;;4990988;28;20425;-74
2021/04/02 00:11:41;;;;;;;397.33;222.52;;;;;;;;;;4989128;28;20026;-73
2021/04/02 00:14:07;;;;;;;410.05;221.38;;;;;;;;;;5007755;28;20060;-72
2021/04/02 00:16:33;;;;;;;412.77;225.77;;;;;;;;;;5007491;28;20034;-73
2021/04/02 00:18:59;;;;;;;387.05;227.10;;;;;;;;;;5008518;28;20030;-73
2021/04/02 00:21:25;;;;;;;413.55;226.73;;;;;;;;;;4989674;28;20025;-73
2021/04/02 00:23:51;;;;;;;410.77;218.30;;;;;;;;;;4990660;28;20025;-72
2021/04/02 00:26:19;;;;;;;412.17;218.55;;;;;;;;;;4988846;28;20028;-72
2021/04/02 00:28:45;;;;;;;388.45;217.38;;;;;;;;;;5020083;28;20023;-72
2021/04/02 00:31:11;;;;;;;381.15;221.63;;;;;;;;;;4993973;28;20485;-72
2021/04/02 00:33:37;;;;;;;385.60;228.73;;;;;;;;;;4994670;28;20077;-72
2021/04/02 00:36:04;;;;;;;379.90;219.68;;;;;;;;;;5009253;28;20507;-73
2021/04/02 00:38:30;;;;;;;379.17;223.57;;;;;;;;;;5010759;28;20458;-72
2021/04/02 00:41:00;;;;;;;387.17;226.05;;;;;;;;;;5008272;28;20029;-72
2021/04/02 00:43:27;;;;;;;377.70;220.18;;;;;;;;;;5007244;28;20053;-73
2021/04/02 00:45:54;;;;;;;384.98;229.82;;;;;;;;;;4993105;28;20025;-72
2021/04/02 00:48:19;;;;;;;386.77;224.40;;;;;;;;;;4994005;28;20053;-72
2021/04/02 00:50:51;;;;;;;384.52;220.88;;;;;;;;;;5009154;28;20033;-72
2021/04/02 00:53:18;;;;;;;378.42;223.48;;;;;;;;;;4993112;28;20042;-73
2021/04/02 00:55:45;;;;;;;374.95;215.77;;;;;;;;;;5009531;28;20022;-73
2021/04/02 00:58:15;;;;;;;373.08;215.20;;;;;;;;;;4993169;28;20030;-72
2021/04/02 01:00:41;;;;;;;377.35;217.77;;;;;;;;;;4992880;28;20108;-73
2021/04/02 01:03:08;;;;;;;380.17;226.02;;;;;;;;;;4993307;28;20026;-73
2021/04/02 01:05:37;;;;;;;373.05;217.35;;;;;;;;;;5008859;28;20044;-72
2021/04/02 01:08:07;;;;;;;378.63;222.07;;;;;;;;;;4986962;28;20022;-72
2021/04/02 01:10:33;;;;;;;;;;;;;;;;;;4992632;28;20165;-72
2021/04/02 01:13:00;;;;;;;370.67;205.98;;;;;;;;;;4991545;28;20008;-72
2021/04/02 01:15:41;;;;;;;374.73;216.32;;;;;;;;;;5011016;28;20577;-72
2021/04/02 01:18:11;;;;;;;375.60;215.77;;;;;;;;;;4990063;28;20029;-73
2021/04/02 01:20:39;;;;;;;377.25;206.68;;;;;;;;;;4993110;28;20034;-73
2021/04/02 01:23:09;;;;;;;406.20;215.07;;;;;;;;;;4993170;28;20026;-72
2021/04/02 01:25:54;;;;;;;381.27;222.02;;;;;;;;;;5010816;28;20042;-72
2021/04/02 01:28:26;;;;;;;387.02;216.10;;;;;;;;;;4991450;28;20397;-72
2021/04/02 01:30:56;;;;;;;382.33;223.40;;;;;;;;;;4991804;28;20033;-72
2021/04/02 01:33:22;;;;;;;403.02;203.35;;;;;;;;;;4992539;28;20057;-73
2021/04/02 01:35:49;;;;;;;378.95;214.05;;;;;;;;;;4990703;28;20496;-72
2021/04/02 01:38:16;;;;;;;407.02;220.15;;;;;;;;;;4992168;28;20026;-72
2021/04/02 01:40:45;;;;;;;398.20;207.90;;;;;;;;;;5005815;28;20149;-72
2021/04/02 01:43:13;;;;;;;380.67;219.63;;;;;;;;;;4989367;28;20049;-73
2021/04/02 01:45:40;;;;;;;374.55;214.70;;;;;;;;;;4986329;28;20053;-72
2021/04/02 01:48:07;;;;;;;381.88;221.43;;;;;;;;;;4991061;28;20331;-73
2021/04/02 01:50:33;;;;;;;377.08;219.10;;;;;;;;;;5010842;28;20026;-72
2021/04/02 01:53:00;;;;;;;375.33;216.85;;;;;;;;;;4987908;28;20053;-72
2021/04/02 01:55:26;;;;;;;378.05;208.40;;;;;;;;;;4992426;28;20026;-72
2021/04/02 01:57:52;;;;;;;418.20;225.70;;;;;;;;;;4992045;28;20117;-72
2021/04/02 02:00:22;;;;;;;418.83;224.27;;;;;;;;;;5009088;28;20426;-72
2021/04/02 02:02:48;;;;;;;398.02;199.30;;;;;;;;;;5009775;28;20664;-72
2021/04/02 02:05:14;;;;;;;374.90;202.10;;;;;;;;;;4992106;28;20017;-72
2021/04/02 02:07:41;;;;;;;387.15;214.80;;;;;;;;;;5009299;28;20026;-73
2021/04/02 02:10:08;;;;;;;411.88;216.95;;;;;;;;;;5008120;28;20154;-72
2021/04/02 02:12:36;;;;;;;381.35;220.15;;;;;;;;;;5007196;28;20424;-72
2021/04/02 02:15:05;;;;;;;404.25;217.93;;;;;;;;;;5009167;28;20068;-71
2021/04/02 02:17:31;;;;;;;394.08;215.70;;;;;;;;;;5009733;28;20096;-72
2021/04/02 02:20:00;;;;;;;409.38;216.98;;;;;;;;;;5007004;28;20482;-72
2021/04/02 02:22:26;;;;;;;407.45;220.50;;;;;;;;;;4992139;28;20018;-72
2021/04/02 02:24:52;;;;;;;384.42;216.73;;;;;;;;;;4986164;28;20033;-71
2021/04/02 02:27:18;;;;;;;393.67;219.00;;;;;;;;;;5006498;28;20085;-72
2021/04/02 02:29:44;;;;;;;386.25;217.25;;;;;;;;;;4991307;28;20507;-72
2021/04/02 02:32:10;;;;;;;410.90;218.95;;;;;;;;;;4992443;28;20030;-72
2021/04/02 02:34:36;;;;;;;410.27;218.52;;;;;;;;;;4991050;28;20145;-73
2021/04/02 02:37:02;;;;;;;402.48;214.00;;;;;;;;;;4991614;28;20551;-72
2021/04/02 02:39:29;;;;;;;407.38;225.63;;;;;;;;;;4987414;28;20346;-72
2021/04/02 02:41:56;;;;;;;399.17;212.70;;;;;;;;;;4990634;28;20042;-72
2021/04/02 02:44:22;;;;;;;376.00;204.40;;;;;;;;;;4991339;28;20089;-72
2021/04/02 02:46:48;;;;;;;379.38;219.82;;;;;;;;;;4989033;28;20084;-72
2021/04/02 02:49:16;;;;;;;378.10;213.00;;;;;;;;;;5008052;28;20034;-71
2021/04/02 02:51:42;;;;;;;376.70;220.93;;;;;;;;;;4991601;28;20045;-72
2021/04/02 02:54:10;;;;;;;373.55;217.00;;;;;;;;;;4992122;28;20033;-72
2021/04/02 02:56:37;;;;;;;379.13;220.07;;;;;;;;;;5009764;28;20044;-74
2021/04/02 02:59:04;;;;;;;375.52;210.18;;;;;;;;;;4991989;28;20030;-73
2021/04/02 03:01:31;;;;;;;381.83;205.85;;;;;;;;;;5009483;28;20041;-74
2021/04/02 03:03:58;;;;;;;402.73;214.20;;;;;;;;;;5008986;28;20040;-73
2021/04/02 03:06:25;;;;;;;403.20;214.43;;;;;;;;;;4991804;28;20041;-73
2021/04/02 03:08:53;;;;;;;406.75;214.38;;;;;;;;;;4991879;28;20037;-73
2021/04/02 03:11:20;;;;;;;376.50;212.77;;;;;;;;;;4979988;28;20513;-72
2021/04/02 03:13:46;;;;;;;376.15;221.85;;;;;;;;;;5009792;28;20037;-73
2021/04/02 03:16:12;;;;;;;375.63;220.05;;;;;;;;;;4990663;28;20022;-73
2021/04/02 03:18:38;;;;;;;372.48;216.52;;;;;;;;;;5020094;28;20021;-73
2021/04/02 03:21:08;;;;;;;374.85;216.40;;;;;;;;;;4994471;28;20030;-73
2021/04/02 03:23:36;;;;;;;375.88;205.43;;;;;;;;;;5009592;28;20122;-73
2021/04/02 03:26:02;;;;;;;405.05;212.55;;;;;;;;;;5009036;28;20037;-73
2021/04/02 03:28:28;;;;;;;409.13;222.45;;;;;;;;;;5003998;28;20049;-74
2021/04/02 03:30:55;;;;;;;382.85;214.77;;;;;;;;;;4990983;28;20057;-73
2021/04/02 03:33:26;;;;;;;395.65;214.15;;;;;;;;;;4991996;28;20919;-72
2021/04/02 03:35:57;;;;;;;403.75;212.25;;;;;;;;;;4991590;28;20560;-73
2021/04/02 03:38:24;;;;;;;405.20;219.07;;;;;;;;;;4992325;28;20030;-73
2021/04/02 03:40:51;;;;;;;404.13;212.48;;;;;;;;;;5006769;28;20034;-74
2021/04/02 03:43:18;;;;;;;401.33;214.18;;;;;;;;;;4990703;28;20046;-73
2021/04/02 03:45:46;;;;;;;397.20;225.27;;;;;;;;;;5007925;28;20417;-73
2021/04/02 03:48:13;;;;;;;378.50;215.35;;;;;;;;;;4991790;28;20029;-73
2021/04/02 03:50:41;;;;;;;378.67;219.45;;;;;;;;;;4990276;28;20097;-73
2021/04/02 03:53:07;;;;;;;381.50;218.50;;;;;;;;;;4992073;28;20610;-73
2021/04/02 03:55:33;;;;;;;404.45;212.95;;;;;;;;;;4991545;28;20136;-73
2021/04/02 03:58:01;;;;;;;408.70;217.68;;;;;;;;;;4991549;28;20072;-73
2021/04/02 04:00:29;;;;;;;410.30;219.70;;;;;;;;;;4993056;28;20026;-73
2021/04/02 04:02:55;;;;;;;385.48;213.80;;;;;;;;;;4995050;28;20052;-72
2021/04/02 04:05:21;;;;;;;399.17;211.45;;;;;;;;;;5012386;28;20056;-73
2021/04/02 04:07:48;;;;;;;404.27;219.43;;;;;;;;;;4995204;28;20038;-72
2021/04/02 04:10:16;;;;;;;400.27;214.70;;;;;;;;;;5010002;28;20112;-72
2021/04/02 04:12:42;;;;;;;376.45;221.98;;;;;;;;;;4992060;28;20050;-73
2021/04/02 04:15:10;;;;;;;373.73;214.82;;;;;;;;;;4995189;28;20018;-73
2021/04/02 04:17:37;;;;;;;376.52;218.55;;;;;;;;;;4993631;28;20026;-72
2021/04/02 04:20:04;;;;;;;367.65;210.23;;;;;;;;;;4984892;28;20068;-73
2021/04/02 04:22:30;;;;;;;371.40;214.20;;;;;;;;;;4979417;28;20022;-72
2021/04/02 04:24:57;;;;;;;379.42;219.10;;;;;;;;;;5011267;28;20064;-74
2021/04/02 04:27:23;;;;;;;372.92;213.80;;;;;;;;;;4994768;28;20045;-73
2021/04/02 04:29:50;;;;;;;370.85;217.73;;;;;;;;;;5012376;28;20029;-73
2021/04/02 04:32:17;;;;;;;377.52;223.93;;;;;;;;;;4994409;28;20037;-73
2021/04/02 04:34:45;;;;;;;369.35;210.32;;;;;;;;;;4994466;28;20037;-73
2021/04/02 04:37:12;;;;;;;377.30;208.98;;;;;;;;;;4994611;28;20022;-73
2021/04/02 04:39:37;;;;;;;380.52;214.25;;;;;;;;;;4986068;28;20362;-73
2021/04/02 04:42:04;;;;;;;388.83;220.35;;;;;;;;;;4994154;28;20044;-73
2021/04/02 04:44:30;;;;;;;397.02;208.15;;;;;;;;;;4994440;28;20068;-73
2021/04/02 04:46:56;;;;;;;411.73;213.43;;;;;;;;;;4993275;28;20045;-73
2021/04/02 04:49:25;;;;;;;379.73;216.32;;;;;;;;;;4993586;28;20030;-73
2021/04/02 04:51:52;;;;;;;401.50;208.82;;;;;;;;;;5010899;28;20461;-73
2021/04/02 04:54:22;;;;;;;410.42;214.63;;;;;;;;;;5010806;28;20369;-73
2021/04/02 04:56:50;;;;;;;420.35;216.65;;;;;;;;;;4994040;28;20033;-73
2021/04/02 04:59:18;;;;;;;367.23;200.43;;;;;;;;;;4993807;28;20513;-73
2021/04/02 05:01:46;;;;;;;371.88;211.10;;;;;;;;;;5011303;28;20054;-73
2021/04/02 05:04:43;;;;;;;369.05;209.57;;;;;;;;;;4990549;28;20038;-73
2021/04/02 05:07:10;;;;;;;368.10;210.77;;;;;;;;;;4989314;28;20493;-73
2021/04/02 05:09:38;;;;;;;383.45;225.77;;;;;;;;;;4991501;28;20037;-73
2021/04/02 05:12:06;;;;;;;370.60;209.25;;;;;;;;;;4992539;28;20034;-72
2021/04/02 05:14:32;;;;;;;364.90;207.07;;;;;;;;;;5011537;28;20044;-73
2021/04/02 05:16:58;;;;;;;366.42;213.20;;;;;;;;;;5010991;28;20030;-73
2021/04/02 05:19:25;;;;;;;360.98;201.52;;;;;;;;;;4993585;28;20026;-72
2021/04/02 05:21:51;;;;;;;369.27;207.90;;;;;;;;;;4993212;28;20069;-73
2021/04/02 05:24:17;;;;;;;366.52;207.93;;;;;;;;;;4993973;28;20148;-74
2021/04/02 05:26:43;;;;;;;385.75;215.13;;;;;;;;;;4993585;28;20038;-73
2021/04/02 05:29:09;;;;;;;413.05;214.25;;;;;;;;;;5011186;28;20373;-73
2021/04/02 05:31:35;;;;;;;414.38;212.15;;;;;;;;;;5010727;28;20037;-73
2021/04/02 05:34:01;;;;;;;405.58;213.18;;;;;;;;;;5010082;28;20022;-73
2021/04/02 05:36:27;;;;;;;406.45;217.40;;;;;;;;;;4992164;28;20060;-73
2021/04/02 05:38:53;;;;;;;403.52;211.57;;;;;;;;;;4983437;28;20109;-73
2021/04/02 05:41:20;;;;;;;370.05;202.10;;;;;;;;;;5004638;28;20064;-73
2021/04/02 05:43:48;;;;;;;368.05;214.63;;;;;;;;;;5009494;28;20120;-73
2021/04/02 05:46:15;;;;;;;365.85;212.93;;;;;;;;;;5010275;28;20037;-73
2021/04/02 05:48:44;;;;;;;380.08;216.10;;;;;;;;;;4992737;28;20045;-73
2021/04/02 05:51:10;;;;;;;366.55;202.63;;;;;;;;;;5010475;28;20477;-73
2021/04/02 05:53:37;;;;;;;362.25;206.05;;;;;;;;;;4992426;28;20034;-73
2021/04/02 05:56:04;;;;;;;369.73;206.07;;;;;;;;;;5010055;28;20033;-73
2021/04/02 05:58:30;;;;;;;367.00;211.45;;;;;;;;;;4993131;28;20536;-73
2021/04/02 06:00:57;;;;;;;368.90;208.52;;;;;;;;;;4991657;28;20978;-72
2021/04/02 06:03:23;;;;;;;376.67;223.02;;;;;;;;;;4992708;28;20398;-73
2021/04/02 06:05:49;;;;;;;363.35;206.80;;;;;;;;;;4991889;28;20042;-73
2021/04/02 06:08:16;;;;;;;364.08;209.95;;;;;;;;;;4987567;28;20509;-72
2021/04/02 06:10:42;;;;;;;364.63;201.18;;;;;;;;;;4990903;28;20021;-73
2021/04/02 06:13:08;;;;;;;366.48;218.60;;;;;;;;;;5010349;28;20022;-73
2021/04/02 06:15:34;;;;;;;369.05;210.75;;;;;;;;;;4991844;28;20028;-72
2021/04/02 06:18:07;;;;;;;374.50;219.27;;;;;;;;;;5010171;28;20034;-73
2021/04/02 06:20:40;;;;;;;369.13;214.85;;;;;;;;;;5010155;28;20382;-73
2021/04/02 06:23:08;;;;;;;372.27;214.18;;;;;;;;;;4990423;28;20088;-73
2021/04/02 06:25:34;;;;;;;368.63;208.15;;;;;;;;;;4993149;28;20409;-72
2021/04/02 06:28:00;;;;;;;372.23;218.00;;;;;;;;;;4991126;28;20030;-72
2021/04/02 06:30:31;;;;;;;378.13;223.70;;;;;;;;;;4991199;28;20026;-72
2021/04/02 06:32:57;;;;;;;385.27;231.52;;;;;;;;;;4981922;28;20749;-73
2021/04/02 06:35:27;;;;;;;374.27;217.38;;;;;;;;;;4991034;28;20041;-73
2021/04/02 06:37:56;;;;;;;381.33;227.95;;;;;;;;;;4988732;28;20108;-72
2021/04/02 06:40:23;;;;;;;378.27;227.52;;;;;;;;;;4990820;28;20061;-72
2021/04/02 06:42:49;;;;;;;379.30;227.00;;;;;;;;;;4988522;28;20030;-71
2021/04/02 06:45:16;;;;;;;383.13;231.07;;;;;;;;;;5008151;28;20582;-73
2021/04/02 06:47:42;;;;;;;380.25;227.50;;;;;;;;;;5005532;28;20034;-73
2021/04/02 06:50:24;;;;;;;388.65;237.02;;;;;;;;;;5017707;28;20369;-73
2021/04/02 06:52:52;;;;;;;388.00;235.57;;;;;;;;;;4989339;28;20038;-73
2021/04/02 06:55:18;;;;;;;384.02;234.75;;;;;;;;;;5008241;28;20481;-73
2021/04/02 06:57:49;;;;;;;388.55;242.15;;;;;;;;;;5004243;28;20030;-73
2021/04/02 07:00:17;;;;;;;389.50;242.45;;;;;;;;;;4988086;28;20528;-72
2021/04/02 07:02:45;;;;;;;393.98;241.43;;;;;;;;;;4984481;28;20030;-73
2021/04/02 07:05:11;;;;;;;398.67;236.05;;;;;;;;;;5008188;28;20032;-73
2021/04/02 07:07:39;;;;;;;441.75;262.85;;;;;;;;;;5007893;28;20022;-74
2021/04/02 07:10:09;;;;;;;403.75;244.02;;;;;;;;;;5006215;28;20795;-74
2021/04/02 07:12:36;;;;;;;405.58;253.18;;;;;;;;;;4992803;28;20030;-73
2021/04/02 07:15:02;;;;;;;439.48;260.92;;;;;;;;;;4987597;28;20509;-73
2021/04/02 07:17:28;;;;;;;403.17;253.10;;;;;;;;;;4977763;28;20019;-73
2021/04/02 07:19:55;;;;;;;395.92;253.05;;;;;;;;;;5010570;28;20028;-74
2021/04/02 07:22:21;;;;;;;393.10;247.90;;;;;;;;;;4991529;28;20054;-73
2021/04/02 07:24:48;;;;;;;389.23;246.23;;;;;;;;;;4991502;28;20025;-74
2021/04/02 07:27:14;;;;;;;391.10;243.35;;;;;;;;;;4990997;28;20030;-75
2021/04/02 07:29:40;;;;;;;391.10;251.57;;;;;;;;;;5004686;28;20030;-73
2021/04/02 07:32:07;;;;;;;391.67;249.45;;;;;;;;;;4997760;28;20034;-74
2021/04/02 07:34:33;;;;;;;393.50;247.68;;;;;;;;;;4991924;28;20029;-76
2021/04/02 07:36:59;;;;;;;390.13;253.30;;;;;;;;;;5013098;28;20069;-74
2021/04/02 07:39:30;;;;;;;396.90;256.00;;;;;;;;;;4990942;28;20657;-74
2021/04/02 07:41:56;;;;;;;;;;;;;;;;;;5009386;28;20071;-74
2021/04/02 07:44:22;;;;;;;386.45;237.88;;;;;;;;;;4987316;28;19956;-75
2021/04/02 07:47:04;;;;;;;391.77;249.55;;;;;;;;;;4995049;28;20622;-78
2021/04/02 07:49:31;;;;;;;395.33;245.68;;;;;;;;;;4994296;28;20454;-74
2021/04/02 07:51:57;;;;;;;390.13;243.13;;;;;;;;;;5012189;28;20033;-73
2021/04/02 07:54:27;;;;;;;393.98;250.23;;;;;;;;;;4995518;28;20022;-74
2021/04/02 07:56:55;;;;;;;395.65;247.98;;;;;;;;;;5011019;28;20470;-74
2021/04/02 07:59:35;;;;;;;390.83;245.90;;;;;;;;;;5013339;28;20029;-75
2021/04/02 08:02:05;;;;;;;390.10;245.32;;;;;;;;;;5012660;28;20056;-75
2021/04/02 08:04:41;;;;;;;390.85;244.52;;;;;;;;;;4996539;28;20064;-75
2021/04/02 08:07:17;;;;;;;397.80;258.08;;;;;;;;;;4997367;28;20033;-74
2021/04/02 08:09:50;;;;;;;393.88;253.55;;;;;;;;;;5003839;28;20037;-74
2021/04/02 08:12:22;;;;;;;392.70;252.38;;;;;;;;;;5013438;28;20026;-75
2021/04/02 08:14:49;;;;;;;394.70;247.25;;;;;;;;;;5013552;28;20041;-75
2021/04/02 08:17:19;;;;;;;399.10;250.32;;;;;;;;;;5009514;28;20527;-75
2021/04/02 08:19:47;;;;;;;402.40;245.57;;;;;;;;;;5012462;28;20141;-75
2021/04/02 08:22:15;;;;;;;409.55;258.25;;;;;;;;;;5013068;28;20068;-73
2021/04/02 08:24:42;;;;;;;475.23;279.00;;;;;;;;;;4995671;28;20036;-76
2021/04/02 08:27:09;;;;;;;431.02;254.02;;;;;;;;;;5012334;28;20025;-76
2021/04/02 08:29:35;;;;;;;397.58;250.65;;;;;;;;;;4994318;28;20037;-75
2021/04/02 08:32:09;;;;;;;402.27;257.90;;;;;;;;;;5013201;28;20069;-78
2021/04/02 08:34:36;;;;;;;392.55;251.77;;;;;;;;;;5013716;28;20030;-75
2021/04/02 08:37:04;;;;;;;395.20;254.85;;;;;;;;;;5013442;28;20353;-81
2021/04/02 08:39:30;;;;;;;395.55;258.35;;;;;;;;;;4993903;28;20045;-75
2021/04/02 08:41:59;;;;;;;397.27;250.75;;;;;;;;;;5011589;28;20485;-74
2021/04/02 08:44:33;;;;;;;392.50;255.73;;;;;;;;;;4993682;28;20034;-75
2021/04/02 08:46:59;;;;;;;399.33;256.48;;;;;;;;;;4990047;28;20080;-76
2021/04/02 08:49:26;;;;;;;396.77;247.70;;;;;;;;;;5012183;28;20441;-74
2021/04/02 08:51:52;;;;;;;401.85;250.00;;;;;;;;;;4994712;28;20094;-75
2021/04/02 08:54:19;;;;;;;396.55;254.18;;;;;;;;;;4993139;28;20026;-75
2021/04/02 08:56:46;;;;;;;404.70;260.10;;;;;;;;;;5008259;28;20018;-78
2021/04/02 08:59:13;;;;;;;394.95;258.58;;;;;;;;;;4994724;28;20377;-78
2021/04/02 09:01:43;;;;;;;401.95;258.30;;;;;;;;;;4994923;28;20026;-75
2021/04/02 09:04:10;;;;;;;397.08;258.17;;;;;;;;;;5012036;28;20524;-74
2021/04/02 09:06:36;;;;;;;394.52;257.67;;;;;;;;;;4995536;28;20030;-75
2021/04/02 09:09:04;;;;;;;400.67;259.27;;;;;;;;;;4995953;28;20026;-75
2021/04/02 09:11:30;;;;;;;397.38;252.55;;;;;;;;;;4994197;28;20036;-76
2021/04/02 09:13:56;;;;;;;392.70;249.77;;;;;;;;;;5013407;28;20064;-75
2021/04/02 09:16:22;;;;;;;402.70;260.58;;;;;;;;;;4995825;28;20021;-75
2021/04/02 09:18:53;;;;;;;399.33;257.85;;;;;;;;;;4996183;28;20033;-79
2021/04/02 09:21:37;;;;;;;397.75;253.57;;;;;;;;;;5013816;28;20053;-77
2021/04/02 09:24:04;;;;;;;391.50;249.75;;;;;;;;;;4995865;28;20053;-79
2021/04/02 09:26:34;;;;;;;397.50;253.02;;;;;;;;;;4995186;28;20055;-76
2021/04/02 09:29:02;;;;;;;401.75;260.60;;;;;;;;;;5013083;28;20030;-79
2021/04/02 09:31:29;;;;;;;391.55;257.38;;;;;;;;;;5013278;28;20026;-76
2021/04/02 09:33:59;;;;;;;394.60;252.10;;;;;;;;;;4995298;28;20046;-75
2021/04/02 09:36:36;;;;;;;395.08;258.83;;;;;;;;;;4995387;28;20022;-73
2021/04/02 09:39:06;;;;;;;397.60;261.02;;;;;;;;;;4994224;28;20032;-75
2021/04/02 09:41:32;;;;;;;403.20;262.20;;;;;;;;;;4991136;28;20030;-75
2021/04/02 09:44:05;;;;;;;409.23;263.42;;;;;;;;;;5011803;28;20386;-73
2021/04/02 09:46:32;;;;;;;460.15;292.25;;;;;;;;;;5012493;28;20033;-76
2021/04/02 09:49:01;;;;;;;455.80;289.15;;;;;;;;;;5012574;28;20574;-76
2021/04/02 09:51:28;;;;;;;489.98;305.23;;;;;;;;;;5012779;28;20378;-77
2021/04/02 09:53:53;;;;;;;458.25;294.02;;;;;;;;;;5012094;28;20562;-78
2021/04/02 09:56:19;;;;;;;459.73;292.88;;;;;;;;;;5011914;28;20014;-78
2021/04/02 09:58:45;;;;;;;407.63;273.67;;;;;;;;;;4994437;28;20100;-76
2021/04/02 10:01:11;;;;;;;412.95;277.92;;;;;;;;;;4994901;28;20133;-75
2021/04/02 10:03:38;;;;;;;398.75;271.35;;;;;;;;;;5012329;28;20022;-75
2021/04/02 10:06:04;;;;;;;405.73;275.35;;;;;;;;;;4994669;28;20081;-75
2021/04/02 10:08:30;;;;;;;409.00;281.25;;;;;;;;;;4994872;28;20034;-77
2021/04/02 10:10:56;;;;;;;400.63;270.83;;;;;;;;;;5011074;28;20026;-81
2021/04/02 10:13:22;;;;;;;402.75;268.17;;;;;;;;;;4995206;28;20066;-75
2021/04/02 10:15:48;;;;;;;402.90;273.00;;;;;;;;;;5011315;28;20060;-75
2021/04/02 10:18:17;;;;;;;403.05;270.90;;;;;;;;;;4993301;28;20455;-75
2021/04/02 10:20:43;;;;;;;400.13;272.42;;;;;;;;;;4992019;28;20026;-75
2021/04/02 10:23:16;;;;;;;406.58;275.65;;;;;;;;;;4995391;28;20033;-75
2021/04/02 10:25:42;;;;;;;401.52;268.40;;;;;;;;;;4994539;28;20062;-76
2021/04/02 10:28:08;;;;;;;403.38;273.70;;;;;;;;;;5011850;28;20489;-77
2021/04/02 10:30:34;;;;;;;402.80;272.20;;;;;;;;;;4994457;28;20022;-74
2021/04/02 10:33:00;;;;;;;406.35;274.00;;;;;;;;;;4993490;28;20076;-77
2021/04/02 10:35:28;;;;;;;407.25;275.88;;;;;;;;;;4994586;28;20018;-76
2021/04/02 10:37:55;;;;;;;398.13;271.20;;;;;;;;;;5011493;28;20052;-73
2021/04/02 10:40:21;;;;;;;409.45;274.92;;;;;;;;;;4991644;28;20057;-78
2021/04/02 10:42:47;;;;;;;402.35;274.02;;;;;;;;;;4973907;28;20033;-77
2021/04/02 10:45:14;;;;;;;403.30;272.48;;;;;;;;;;4974618;28;20035;-74
2021/04/02 10:47:40;;;;;;;402.13;270.98;;;;;;;;;;4991775;28;20474;-72
2021/04/02 10:50:06;;;;;;;401.65;272.90;;;;;;;;;;4978232;28;20025;-73
2021/04/02 10:52:32;;;;;;;410.17;278.48;;;;;;;;;;4993608;28;20041;-74
2021/04/02 10:54:58;;;;;;;408.50;275.38;;;;;;;;;;5009069;28;20026;-76
2021/04/02 10:57:24;;;;;;;407.65;277.92;;;;;;;;;;4990918;28;20109;-74
2021/04/02 10:59:50;;;;;;;408.55;280.02;;;;;;;;;;5010975;28;20029;-79
2021/04/02 11:02:16;;;;;;;404.25;278.52;;;;;;;;;;4987065;28;20036;-73
2021/04/02 11:04:42;;;;;;;409.58;272.67;;;;;;;;;;4993042;28;20025;-75
2021/04/02 11:07:08;;;;;;;408.02;281.35;;;;;;;;;;5011261;28;20381;-80
2021/04/02 11:09:34;;;;;;;407.77;275.00;;;;;;;;;;4985471;28;20034;-74
2021/04/02 11:12:00;;;;;;;402.20;274.55;;;;;;;;;;4989731;28;21432;-76
2021/04/02 11:14:26;;;;;;;406.75;280.92;;;;;;;;;;4992650;28;20355;-73
2021/04/02 11:16:52;;;;;;;404.20;274.02;;;;;;;;;;4992619;28;20041;-75
2021/04/02 11:19:18;;;;;;;405.33;270.13;;;;;;;;;;4992415;28;20014;-75
2021/04/02 11:21:44;;;;;;;414.10;279.10;;;;;;;;;;5010532;28;20078;-73
2021/04/02 11:24:17;;;;;;;407.90;282.98;;;;;;;;;;5006548;28;20143;-74
2021/04/02 11:26:43;;;;;;;400.25;277.02;;;;;;;;;;4991338;28;20084;-76
2021/04/02 11:29:09;;;;;;;412.60;280.17;;;;;;;;;;4983714;28;20034;-76
2021/04/02 11:31:35;;;;;;;410.55;286.73;;;;;;;;;;4992183;28;20028;-76
2021/04/02 11:34:01;;;;;;;410.05;279.45;;;;;;;;;;4992804;28;20052;-75
2021/04/02 11:36:27;;;;;;;413.30;282.58;;;;;;;;;;5010832;28;20018;-75
2021/04/02 11:38:53;;;;;;;408.42;287.05;;;;;;;;;;5011333;28;20109;-75
2021/04/02 11:41:19;;;;;;;410.33;284.85;;;;;;;;;;4991331;28;20033;-76
2021/04/02 11:43:45;;;;;;;402.00;277.63;;;;;;;;;;5006244;28;20049;-80
2021/04/02 11:46:12;;;;;;;402.98;278.33;;;;;;;;;;5006603;28;20026;-79
2021/04/02 11:48:38;;;;;;;415.00;279.20;;;;;;;;;;5007902;28;20069;-76
2021/04/02 11:51:04;;;;;;;409.85;280.42;;;;;;;;;;5004974;28;20046;-75
2021/04/02 11:53:30;;;;;;;410.63;279.48;;;;;;;;;;4984286;28;20037;-75
2021/04/02 11:55:56;;;;;;;413.95;276.98;;;;;;;;;;4992266;28;20034;-77
2021/04/02 11:58:22;;;;;;;408.40;278.67;;;;;;;;;;4991429;28;20060;-75
2021/04/02 12:00:48;;;;;;;411.70;280.88;;;;;;;;;;4991844;28;20481;-76
2021/04/02 12:03:14;;;;;;;409.70;282.45;;;;;;;;;;4992549;28;20025;-76
2021/04/02 12:05:40;;;;;;;415.95;284.58;;;;;;;;;;4992247;28;20113;-75
2021/04/02 12:08:09;;;;;;;419.80;281.73;;;;;;;;;;4991469;28;20030;-74
2021/04/02 12:10:36;;;;;;;467.75;298.50;;;;;;;;;;4986866;28;20038;-77
2021/04/02 12:13:02;;;;;;;462.60;297.20;;;;;;;;;;5009401;28;20105;-75
2021/04/02 12:15:28;;;;;;;458.40;296.35;;;;;;;;;;4987769;28;20089;-75
2021/04/02 12:17:54;;;;;;;453.17;291.15;;;;;;;;;;4993309;28;20056;-74
2021/04/02 12:20:20;;;;;;;419.50;278.98;;;;;;;;;;5008284;28;20413;-76
2021/04/02 12:22:48;;;;;;;470.75;300.48;;;;;;;;;;4987196;28;20025;-76
2021/04/02 12:25:15;;;;;;;406.90;274.70;;;;;;;;;;4987454;28;20042;-74
2021/04/02 12:27:41;;;;;;;408.13;282.08;;;;;;;;;;4993374;28;20041;-73
2021/04/02 12:30:08;;;;;;;407.02;272.45;;;;;;;;;;4994604;28;20032;-77
2021/04/02 12:32:34;;;;;;;401.25;275.88;;;;;;;;;;4988123;28;20064;-75
2021/04/02 12:35:02;;;;;;;415.17;278.75;;;;;;;;;;4996216;28;20018;-74
2021/04/02 12:37:29;;;;;;;408.48;279.17;;;;;;;;;;5011368;28;20686;-75
2021/04/02 12:39:54;;;;;;;404.15;272.58;;;;;;;;;;4993580;28;20032;-76
2021/04/02 12:42:20;;;;;;;403.67;274.00;;;;;;;;;;4994601;28;20033;-73
2021/04/02 12:44:50;;;;;;;401.38;269.95;;;;;;;;;;4994162;28;20489;-73
2021/04/02 12:47:18;;;;;;;408.27;276.35;;;;;;;;;;5012512;28;20030;-75
2021/04/02 12:49:47;;;;;;;403.33;269.38;;;;;;;;;;5010570;28;20386;-75
2021/04/02 12:52:15;;;;;;;404.30;273.80;;;;;;;;;;5009466;28;20065;-75
2021/04/02 12:54:42;;;;;;;403.05;276.25;;;;;;;;;;4994375;28;21668;-75
2021/04/02 12:57:19;;;;;;;408.63;280.42;;;;;;;;;;5005818;28;20058;-74
2021/04/02 12:59:51;;;;;;;406.88;276.63;;;;;;;;;;4995187;28;20018;-75
2021/04/02 13:02:25;;;;;;;407.02;274.80;;;;;;;;;;5011570;28;20029;-76
2021/04/02 13:04:53;;;;;;;412.92;279.95;;;;;;;;;;5006739;28;20076;-74
2021/04/02 13:07:20;;;;;;;407.83;275.77;;;;;;;;;;4988263;28;20431;-75
2021/04/02 13:09:52;;;;;;;405.67;277.52;;;;;;;;;;4988179;28;20092;-74
2021/04/02 13:12:18;;;;;;;414.35;279.92;;;;;;;;;;4993647;28;20090;-74
2021/04/02 13:14:46;;;;;;;409.65;273.42;;;;;;;;;;4989942;28;20022;-73
2021/04/02 13:17:12;;;;;;;410.90;278.45;;;;;;;;;;5011609;28;20087;-74
2021/04/02 13:19:40;;;;;;;415.02;285.27;;;;;;;;;;5004404;28;20034;-75
2021/04/02 13:22:07;;;;;;;434.15;294.52;;;;;;;;;;4976397;28;20049;-75
2021/04/02 13:24:33;;;;;;;473.58;298.90;;;;;;;;;;4991395;28;20034;-75
2021/04/02 13:26:59;;;;;;;460.73;287.67;;;;;;;;;;4994914;28;20026;-73
2021/04/02 13:29:25;;;;;;;465.08;289.35;;;;;;;;;;4988939;28;20152;-74
2021/04/02 13:31:53;;;;;;;423.02;278.17;;;;;;;;;;4994850;28;20053;-74
2021/04/02 13:34:19;;;;;;;417.55;280.90;;;;;;;;;;4993059;28;20129;-73
2021/04/02 13:36:45;;;;;;;414.13;284.80;;;;;;;;;;4993319;28;20478;-73
2021/04/02 13:39:11;;;;;;;416.65;284.77;;;;;;;;;;5012025;28;20030;-74
2021/04/02 13:41:37;;;;;;;415.33;282.45;;;;;;;;;;4991463;28;20052;-75
2021/04/02 13:44:05;;;;;;;421.95;279.58;;;;;;;;;;4984859;28;20046;-75
2021/04/02 13:46:32;;;;;;;405.33;276.80;;;;;;;;;;4980697;28;20168;-73
2021/04/02 13:48:58;;;;;;;403.05;275.45;;;;;;;;;;5012119;28;20045;-73
2021/04/02 13:51:24;;;;;;;414.05;279.65;;;;;;;;;;4991875;28;20022;-73
2021/04/02 13:53:50;;;;;;;416.30;281.25;;;;;;;;;;4982976;28;20166;-74
2021/04/02 13:56:16;;;;;;;416.73;281.30;;;;;;;;;;5008605;28;20439;-77